sensor_id;sensor_type;location;lat;lon;timestamp;pressure;altitude;pressure_sealevel;temperature;humidity
77311;BME280;66371;52.714;5.074;2023-07-29T00:00:22;100792.31;;;16.98;100.00
77311;BME280;66371;52.714;5.074;2023-07-29T00:02:47;100787.31;;;16.95;100.00
77311;BME280;66371;52.714;5.074;2023-07-29T00:05:12;100782.94;;;16.94;100.00
77311;BME280;66371;52.714;5.074;2023-07-29T00:07:38;100788.97;;;16.96;100.00
77311;BME280;66371;52.714;5.074;2023-07-29T00:10:03;100786.25;;;16.90;100.00
77311;BME280;66371;52.714;5.074;2023-07-29T00:12:29;100781.66;;;16.84;100.00
77311;BME280;66371;52.714;5.074;2023-07-29T00:14:54;100778.34;;;16.82;100.00
77311;BME280;66371;52.714;5.074;2023-07-29T00:17:20;100778.16;;;16.83;100.00
77311;BME280;66371;52.714;5.074;2023-07-29T00:19:46;100778.16;;;16.90;100.00
77311;BME280;66371;52.714;5.074;2023-07-29T00:22:12;100778.16;;;16.90;100.00
77311;BME280;66371;52.714;5.074;2023-07-29T00:24:39;100767.75;;;16.87;100.00
77311;BME280;66371;52.714;5.074;2023-07-29T00:27:05;100773.59;;;16.90;100.00
77311;BME280;66371;52.714;5.074;2023-07-29T00:29:30;100770.25;;;16.88;100.00
77311;BME280;66371;52.714;5.074;2023-07-29T00:31:55;100766.06;;;16.79;100.00
77311;BME280;66371;52.714;5.074;2023-07-29T00:34:21;100765.25;;;16.79;100.00
77311;BME280;66371;52.714;5.074;2023-07-29T00:36:46;100757.34;;;16.77;100.00
77311;BME280;66371;52.714;5.074;2023-07-29T00:39:12;100755.66;;;16.76;100.00
77311;BME280;66371;52.714;5.074;2023-07-29T00:41:37;100752.13;;;16.69;100.00
77311;BME280;66371;52.714;5.074;2023-07-29T00:44:02;100755.88;;;16.68;100.00
77311;BME280;66371;52.714;5.074;2023-07-29T00:46:28;100748.38;;;16.70;100.00
77311;BME280;66371;52.714;5.074;2023-07-29T00:48:57;100742.78;;;16.65;100.00
77311;BME280;66371;52.714;5.074;2023-07-29T00:51:22;100744.19;;;16.61;100.00
77311;BME280;66371;52.714;5.074;2023-07-29T00:53:47;100739.81;;;16.54;100.00
77311;BME280;66371;52.714;5.074;2023-07-29T00:56:13;100740.66;;;16.54;100.00
77311;BME280;66371;52.714;5.074;2023-07-29T00:58:38;100743.75;;;16.51;100.00
77311;BME280;66371;52.714;5.074;2023-07-29T01:04:04;100732.09;;;16.51;100.00
77311;BME280;66371;52.714;5.074;2023-07-29T01:09:40;100723.97;;;16.44;100.00
77311;BME280;66371;52.714;5.074;2023-07-29T01:12:13;100725.19;;;16.42;100.00
77311;BME280;66371;52.714;5.074;2023-07-29T01:14:57;100731.81;;;16.39;100.00
77311;BME280;66371;52.714;5.074;2023-07-29T01:17:30;100719.75;;;16.35;100.00
77311;BME280;66371;52.714;5.074;2023-07-29T01:20:07;100722.03;;;16.32;100.00
77311;BME280;66371;52.714;5.074;2023-07-29T01:22:34;100718.50;;;16.31;100.00
77311;BME280;66371;52.714;5.074;2023-07-29T01:25:00;100717.25;;;16.27;100.00
77311;BME280;66371;52.714;5.074;2023-07-29T01:27:26;100711.19;;;16.25;100.00
77311;BME280;66371;52.714;5.074;2023-07-29T01:29:52;100718.03;;;16.21;100.00
77311;BME280;66371;52.714;5.074;2023-07-29T01:32:51;100712.59;;;16.15;100.00
77311;BME280;66371;52.714;5.074;2023-07-29T01:35:32;100710.09;;;16.13;100.00
77311;BME280;66371;52.714;5.074;2023-07-29T01:38:06;100716.09;;;16.09;100.00
77311;BME280;66371;52.714;5.074;2023-07-29T01:40:33;100712.94;;;16.05;100.00
77311;BME280;66371;52.714;5.074;2023-07-29T01:42:59;100715.91;;;16.10;100.00
77311;BME280;66371;52.714;5.074;2023-07-29T01:45:25;100705.09;;;16.10;100.00
77311;BME280;66371;52.714;5.074;2023-07-29T01:47:51;100706.75;;;16.11;100.00
77311;BME280;66371;52.714;5.074;2023-07-29T01:50:16;100712.41;;;16.16;100.00
77311;BME280;66371;52.714;5.074;2023-07-29T01:52:42;100712.59;;;16.15;100.00
77311;BME280;66371;52.714;5.074;2023-07-29T01:55:07;100715.50;;;16.13;100.00
77311;BME280;66371;52.714;5.074;2023-07-29T01:57:33;100713.41;;;16.15;100.00
77311;BME280;66371;52.714;5.074;2023-07-29T01:59:58;100714.91;;;16.18;100.00
77311;BME280;66371;52.714;5.074;2023-07-29T02:02:24;100715.53;;;16.20;100.00
77311;BME280;66371;52.714;5.074;2023-07-29T02:04:49;100718.03;;;16.21;100.00
77311;BME280;66371;52.714;5.074;2023-07-29T02:07:17;100710.75;;;16.22;100.00
77311;BME280;66371;52.714;5.074;2023-07-29T02:09:43;100704.56;;;16.21;100.00
77311;BME280;66371;52.714;5.074;2023-07-29T02:12:08;100699.34;;;16.20;100.00
77311;BME280;66371;52.714;5.074;2023-07-29T02:14:34;100701.66;;;16.23;100.00
77311;BME280;66371;52.714;5.074;2023-07-29T02:16:59;100697.47;;;16.20;100.00
77311;BME280;66371;52.714;5.074;2023-07-29T02:19:24;100705.38;;;16.22;100.00
77311;BME280;66371;52.714;5.074;2023-07-29T02:21:50;100696.84;;;16.18;100.00
77311;BME280;66371;52.714;5.074;2023-07-29T02:24:15;100683.34;;;16.18;100.00
77311;BME280;66371;52.714;5.074;2023-07-29T02:26:41;100684.78;;;16.14;100.00
77311;BME280;66371;52.714;5.074;2023-07-29T02:29:06;100676.06;;;16.12;100.00
77311;BME280;66371;52.714;5.074;2023-07-29T02:31:32;100677.09;;;16.11;100.00
77311;BME280;66371;52.714;5.074;2023-07-29T02:33:57;100678.13;;;16.10;100.00
77311;BME280;66371;52.714;5.074;2023-07-29T02:36:23;100687.25;;;16.09;100.00
77311;BME280;66371;52.714;5.074;2023-07-29T02:38:48;100689.13;;;16.09;100.00
77311;BME280;66371;52.714;5.074;2023-07-29T02:41:14;100686.38;;;16.02;100.00
77311;BME280;66371;52.714;5.074;2023-07-29T02:43:47;100675.34;;;15.97;100.00
77311;BME280;66371;52.714;5.074;2023-07-29T02:46:13;100678.25;;;15.96;100.00
77311;BME280;66371;52.714;5.074;2023-07-29T02:48:38;100673.91;;;15.95;100.00
77311;BME280;66371;52.714;5.074;2023-07-29T02:51:03;100679.28;;;15.95;100.00
77311;BME280;66371;52.714;5.074;2023-07-29T02:53:29;100674.75;;;15.95;100.00
77311;BME280;66371;52.714;5.074;2023-07-29T02:55:54;100675.16;;;15.99;100.00
77311;BME280;66371;52.714;5.074;2023-07-29T02:58:19;100681.00;;;16.02;100.00
77311;BME280;66371;52.714;5.074;2023-07-29T03:00:45;100686.13;;;15.97;100.00
77311;BME280;66371;52.714;5.074;2023-07-29T03:03:12;100688.44;;;16.00;100.00
77311;BME280;66371;52.714;5.074;2023-07-29T03:05:38;100684.47;;;15.96;100.00
77311;BME280;66371;52.714;5.074;2023-07-29T03:08:03;100683.03;;;15.94;100.00
77311;BME280;66371;52.714;5.074;2023-07-29T03:10:28;100675.56;;;15.96;100.00
77311;BME280;66371;52.714;5.074;2023-07-29T03:12:54;100672.84;;;15.96;100.00
77311;BME280;66371;52.714;5.074;2023-07-29T03:15:23;100668.72;;;15.93;100.00
77311;BME280;66371;52.714;5.074;2023-07-29T03:17:50;100658.13;;;15.92;100.00
77311;BME280;66371;52.714;5.074;2023-07-29T03:20:15;100658.31;;;15.90;100.00
77311;BME280;66371;52.714;5.074;2023-07-29T03:22:43;100662.44;;;15.86;100.00
77311;BME280;66371;52.714;5.074;2023-07-29T03:25:08;100655.81;;;15.89;100.00
77311;BME280;66371;52.714;5.074;2023-07-29T03:27:34;100662.25;;;15.88;100.00
77311;BME280;66371;52.714;5.074;2023-07-29T03:30:02;100660.38;;;15.88;100.00
77311;BME280;66371;52.714;5.074;2023-07-29T03:32:27;100657.06;;;15.86;100.00
77311;BME280;66371;52.714;5.074;2023-07-29T03:34:53;100654.31;;;15.79;100.00
77311;BME280;66371;52.714;5.074;2023-07-29T03:37:19;100654.72;;;15.76;100.00
77311;BME280;66371;52.714;5.074;2023-07-29T03:39:44;100652.63;;;15.78;100.00
77311;BME280;66371;52.714;5.074;2023-07-29T03:42:10;100655.72;;;15.75;100.00
77311;BME280;66371;52.714;5.074;2023-07-29T03:44:35;100662.81;;;15.76;100.00
77311;BME280;66371;52.714;5.074;2023-07-29T03:47:00;100659.00;;;15.71;100.00
77311;BME280;66371;52.714;5.074;2023-07-29T03:49:26;100653.00;;;15.69;100.00
77311;BME280;66371;52.714;5.074;2023-07-29T03:51:51;100653.22;;;15.67;100.00
77311;BME280;66371;52.714;5.074;2023-07-29T03:54:16;100649.03;;;15.65;100.00
77311;BME280;66371;52.714;5.074;2023-07-29T03:56:42;100654.22;;;15.66;100.00
77311;BME280;66371;52.714;5.074;2023-07-29T03:59:07;100649.47;;;15.68;100.00
77311;BME280;66371;52.714;5.074;2023-07-29T04:01:32;100651.31;;;15.68;100.00
77311;BME280;66371;52.714;5.074;2023-07-29T04:03:59;100649.03;;;15.65;100.00
77311;BME280;66371;52.714;5.074;2023-07-29T04:06:25;100649.47;;;15.68;100.00
77311;BME280;66371;52.714;5.074;2023-07-29T04:08:50;100652.38;;;15.67;100.00
77311;BME280;66371;52.714;5.074;2023-07-29T04:11:15;100651.72;;;15.65;100.00
77311;BME280;66371;52.714;5.074;2023-07-29T04:13:41;100651.72;;;15.65;100.00
77311;BME280;66371;52.714;5.074;2023-07-29T04:16:07;100657.09;;;15.65;100.00
77311;BME280;66371;52.714;5.074;2023-07-29T04:18:32;100649.03;;;15.65;100.00
77311;BME280;66371;52.714;5.074;2023-07-29T04:20:57;100644.47;;;15.65;100.00
77311;BME280;66371;52.714;5.074;2023-07-29T04:23:23;100650.72;;;15.66;100.00
77311;BME280;66371;52.714;5.074;2023-07-29T04:25:48;100660.06;;;15.70;100.00
77311;BME280;66371;52.714;5.074;2023-07-29T04:28:15;100662.22;;;15.81;100.00
77311;BME280;66371;52.714;5.074;2023-07-29T04:30:40;100665.59;;;15.96;100.00
77311;BME280;66371;52.714;5.074;2023-07-29T04:33:06;100669.75;;;15.92;100.00
77311;BME280;66371;52.714;5.074;2023-07-29T04:35:31;100667.66;;;15.94;100.00
77311;BME280;66371;52.714;5.074;2023-07-29T04:37:56;100671.41;;;15.93;100.00
77311;BME280;66371;52.714;5.074;2023-07-29T04:40:22;100684.69;;;15.95;100.00
77311;BME280;66371;52.714;5.074;2023-07-29T04:42:48;100686.53;;;15.94;100.00
77311;BME280;66371;52.714;5.074;2023-07-29T04:45:14;100679.75;;;15.98;100.00
77311;BME280;66371;52.714;5.074;2023-07-29T04:47:39;100681.00;;;16.02;100.00
77311;BME280;66371;52.714;5.074;2023-07-29T04:50:05;100675.81;;;16.01;100.00
77311;BME280;66371;52.714;5.074;2023-07-29T04:52:31;100679.13;;;16.03;100.00
77311;BME280;66371;52.714;5.074;2023-07-29T04:54:56;100675.84;;;16.07;100.00
77311;BME280;66371;52.714;5.074;2023-07-29T04:57:22;100678.53;;;16.07;100.00
77311;BME280;66371;52.714;5.074;2023-07-29T04:59:47;100678.75;;;16.06;100.00
77311;BME280;66371;52.714;5.074;2023-07-29T05:02:12;100675.19;;;16.05;100.00
77311;BME280;66371;52.714;5.074;2023-07-29T05:04:38;100676.84;;;16.06;100.00
77311;BME280;66371;52.714;5.074;2023-07-29T05:07:03;100675.41;;;16.04;100.00
77311;BME280;66371;52.714;5.074;2023-07-29T05:09:29;100671.06;;;16.03;100.00
77311;BME280;66371;52.714;5.074;2023-07-29T05:11:54;100660.06;;;16.04;100.00
77311;BME280;66371;52.714;5.074;2023-07-29T05:14:20;100667.34;;;16.10;100.00
77311;BME280;66371;52.714;5.074;2023-07-29T05:16:45;100669.69;;;16.20;100.00
77311;BME280;66371;52.714;5.074;2023-07-29T05:19:11;100673.03;;;16.28;100.00
77311;BME280;66371;52.714;5.074;2023-07-29T05:21:37;100662.56;;;16.46;100.00
77311;BME280;66371;52.714;5.074;2023-07-29T05:24:03;100668.66;;;16.68;100.00
77311;BME280;66371;52.714;5.074;2023-07-29T05:26:29;100665.97;;;16.87;100.00
77311;BME280;66371;52.714;5.074;2023-07-29T05:28:54;100661.88;;;17.04;100.00
77311;BME280;66371;52.714;5.074;2023-07-29T05:31:19;100673.06;;;17.14;100.00
77311;BME280;66371;52.714;5.074;2023-07-29T05:33:45;100672.25;;;17.20;100.00
77311;BME280;66371;52.714;5.074;2023-07-29T05:36:10;100676.44;;;17.23;100.00
77311;BME280;66371;52.714;5.074;2023-07-29T05:38:35;100669.78;;;17.25;100.00
77311;BME280;66371;52.714;5.074;2023-07-29T05:41:01;100667.69;;;17.27;100.00
77311;BME280;66371;52.714;5.074;2023-07-29T05:43:27;100672.47;;;17.32;100.00
77311;BME280;66371;52.714;5.074;2023-07-29T05:45:52;100682.66;;;17.36;100.00
77311;BME280;66371;52.714;5.074;2023-07-29T05:48:19;100679.75;;;17.38;100.00
77311;BME280;66371;52.714;5.074;2023-07-29T05:50:44;100672.50;;;17.38;100.00
77311;BME280;66371;52.714;5.074;2023-07-29T05:53:10;100682.25;;;17.39;100.00
77311;BME280;66371;52.714;5.074;2023-07-29T05:55:35;100685.19;;;17.44;100.00
77311;BME280;66371;52.714;5.074;2023-07-29T05:58:00;100679.78;;;17.44;100.00
77311;BME280;66371;52.714;5.074;2023-07-29T06:00:26;100679.16;;;17.49;100.00
77311;BME280;66371;52.714;5.074;2023-07-29T06:02:51;100679.34;;;17.54;100.00
77311;BME280;66371;52.714;5.074;2023-07-29T06:05:17;100687.69;;;17.59;100.00
77311;BME280;66371;52.714;5.074;2023-07-29T06:07:42;100688.09;;;17.63;100.00
77311;BME280;66371;52.714;5.074;2023-07-29T06:10:12;100672.69;;;17.70;100.00
77311;BME280;66371;52.714;5.074;2023-07-29T06:12:37;100674.34;;;17.77;100.00
77311;BME280;66371;52.714;5.074;2023-07-29T06:15:04;100668.72;;;17.92;100.00
77311;BME280;66371;52.714;5.074;2023-07-29T06:17:29;100668.88;;;18.10;100.00
77311;BME280;66371;52.714;5.074;2023-07-29T06:19:55;100669.66;;;18.17;100.00
77311;BME280;66371;52.714;5.074;2023-07-29T06:22:20;100674.00;;;18.24;100.00
77311;BME280;66371;52.714;5.074;2023-07-29T06:24:45;100661.72;;;18.28;100.00
77311;BME280;66371;52.714;5.074;2023-07-29T06:27:11;100671.50;;;18.23;100.00
77311;BME280;66371;52.714;5.074;2023-07-29T06:29:36;100671.50;;;18.23;100.00
77311;BME280;66371;52.714;5.074;2023-07-29T06:32:02;100677.13;;;18.28;100.00
77311;BME280;66371;52.714;5.074;2023-07-29T06:34:27;100677.13;;;18.28;100.00
77311;BME280;66371;52.714;5.074;2023-07-29T06:36:52;100674.19;;;18.36;100.00
77311;BME280;66371;52.714;5.074;2023-07-29T06:39:18;100673.13;;;18.37;100.00
77311;BME280;66371;52.714;5.074;2023-07-29T06:41:43;100683.97;;;18.37;100.00
77311;BME280;66371;52.714;5.074;2023-07-29T06:44:08;100685.63;;;18.44;100.00
77311;BME280;66371;52.714;5.074;2023-07-29T06:46:34;100676.00;;;18.55;100.00
77311;BME280;66371;52.714;5.074;2023-07-29T06:48:59;100685.59;;;18.57;100.00
77311;BME280;66371;52.714;5.074;2023-07-29T06:51:24;100683.28;;;18.54;100.00
77311;BME280;66371;52.714;5.074;2023-07-29T06:53:50;100688.88;;;18.59;100.00
77311;BME280;66371;52.714;5.074;2023-07-29T06:56:15;100689.34;;;18.50;100.00
77311;BME280;66371;52.714;5.074;2023-07-29T06:58:41;100690.81;;;18.52;100.00
77311;BME280;66371;52.714;5.074;2023-07-29T07:01:06;100692.47;;;18.47;100.00
77311;BME280;66371;52.714;5.074;2023-07-29T07:03:32;100696.25;;;18.46;100.00
77311;BME280;66371;52.714;5.074;2023-07-29T07:05:58;100693.53;;;18.46;100.00
77311;BME280;66371;52.714;5.074;2023-07-29T07:08:23;100696.25;;;18.46;100.00
77311;BME280;66371;52.714;5.074;2023-07-29T07:10:49;100699.31;;;18.56;100.00
77311;BME280;66371;52.714;5.074;2023-07-29T07:13:14;100695.94;;;18.67;100.00
77311;BME280;66371;52.714;5.074;2023-07-29T07:15:40;100696.13;;;18.72;100.00
77311;BME280;66371;52.714;5.074;2023-07-29T07:18:05;100688.09;;;18.90;100.00
77311;BME280;66371;52.714;5.074;2023-07-29T07:20:30;100684.31;;;18.91;100.00
77311;BME280;66371;52.714;5.074;2023-07-29T07:22:56;100685.25;;;19.09;100.00
77311;BME280;66371;52.714;5.074;2023-07-29T07:25:21;100684.34;;;19.22;100.00
77311;BME280;66371;52.714;5.074;2023-07-29T07:27:47;100680.25;;;19.44;100.00
77311;BME280;66371;52.714;5.074;2023-07-29T07:30:13;100685.75;;;19.56;99.58
77311;BME280;66371;52.714;5.074;2023-07-29T07:32:39;100682.22;;;19.55;95.84
77311;BME280;66371;52.714;5.074;2023-07-29T07:35:05;100684.78;;;19.50;95.14
77311;BME280;66371;52.714;5.074;2023-07-29T07:37:30;100680.84;;;19.46;95.24
77311;BME280;66371;52.714;5.074;2023-07-29T07:39:56;100688.66;;;19.36;95.28
77311;BME280;66371;52.714;5.074;2023-07-29T07:42:21;100688.66;;;19.36;95.30
77311;BME280;66371;52.714;5.074;2023-07-29T07:44:46;100682.03;;;19.26;95.42
77311;BME280;66371;52.714;5.074;2023-07-29T07:47:12;100681.91;;;19.45;95.94
77311;BME280;66371;52.714;5.074;2023-07-29T07:49:40;100683.66;;;19.58;96.85
77311;BME280;66371;52.714;5.074;2023-07-29T07:52:06;100682.38;;;19.85;95.37
77311;BME280;66371;52.714;5.074;2023-07-29T07:54:31;100688.97;;;20.13;92.30
77311;BME280;66371;52.714;5.074;2023-07-29T07:56:56;100688.88;;;20.02;93.76
77311;BME280;66371;52.714;5.074;2023-07-29T07:59:22;100688.19;;;19.88;91.74
77311;BME280;66371;52.714;5.074;2023-07-29T08:01:47;100681.16;;;19.81;90.77
77311;BME280;66371;52.714;5.074;2023-07-29T08:04:13;100673.03;;;19.99;91.76
77311;BME280;66371;52.714;5.074;2023-07-29T08:06:38;100675.94;;;20.22;92.55
77311;BME280;66371;52.714;5.074;2023-07-29T08:09:04;100672.00;;;20.18;90.65
77311;BME280;66371;52.714;5.074;2023-07-29T08:11:30;100674.81;;;20.29;91.02
77311;BME280;66371;52.714;5.074;2023-07-29T08:13:55;100681.63;;;20.50;89.92
77311;BME280;66371;52.714;5.074;2023-07-29T08:16:20;100683.25;;;20.39;88.28
77311;BME280;66371;52.714;5.074;2023-07-29T08:18:46;100688.69;;;20.21;91.13
77311;BME280;66371;52.714;5.074;2023-07-29T08:21:12;100692.25;;;19.97;92.11
77311;BME280;66371;52.714;5.074;2023-07-29T08:23:37;100688.19;;;19.88;92.61
77311;BME280;66371;52.714;5.074;2023-07-29T08:26:04;100684.69;;;19.81;93.74
77311;BME280;66371;52.714;5.074;2023-07-29T08:28:32;100692.88;;;19.75;94.87
77311;BME280;66371;52.714;5.074;2023-07-29T08:30:58;100686.03;;;19.72;94.03
77311;BME280;66371;52.714;5.074;2023-07-29T08:33:24;100693.06;;;19.55;95.10
77311;BME280;66371;52.714;5.074;2023-07-29T08:35:49;100699.22;;;19.44;94.83
77311;BME280;66371;52.714;5.074;2023-07-29T08:38:15;100702.91;;;19.18;95.94
77311;BME280;66371;52.714;5.074;2023-07-29T08:40:53;100705.06;;;19.10;97.87
77311;BME280;66371;52.714;5.074;2023-07-29T08:43:20;100708.22;;;19.07;99.39
77311;BME280;66371;52.714;5.074;2023-07-29T08:45:48;100708.25;;;19.00;100.00
77311;BME280;66371;52.714;5.074;2023-07-29T08:48:15;100705.34;;;18.95;99.47
77311;BME280;66371;52.714;5.074;2023-07-29T08:50:44;100705.72;;;19.05;98.94
77311;BME280;66371;52.714;5.074;2023-07-29T08:53:10;100718.78;;;19.15;98.62
77311;BME280;66371;52.714;5.074;2023-07-29T08:55:36;100707.16;;;19.08;98.03
77311;BME280;66371;52.714;5.074;2023-07-29T08:58:02;100704.53;;;18.95;98.68
77311;BME280;66371;52.714;5.074;2023-07-29T09:00:28;100707.22;;;19.01;100.00
77311;BME280;66371;52.714;5.074;2023-07-29T09:02:54;100706.69;;;19.17;99.23
77311;BME280;66371;52.714;5.074;2023-07-29T09:05:21;100705.75;;;19.37;98.74
77311;BME280;66371;52.714;5.074;2023-07-29T09:07:47;100694.75;;;19.56;99.38
77311;BME280;66371;52.714;5.074;2023-07-29T09:10:13;100700.03;;;19.69;97.21
77311;BME280;66371;52.714;5.074;2023-07-29T09:12:40;100709.53;;;19.78;96.60
77311;BME280;66371;52.714;5.074;2023-07-29T09:15:05;100712.59;;;19.88;95.29
77311;BME280;66371;52.714;5.074;2023-07-29T09:17:33;100714.53;;;19.81;93.58
77311;BME280;66371;52.714;5.074;2023-07-29T09:19:58;100729.38;;;19.54;92.31
77311;BME280;66371;52.714;5.074;2023-07-29T09:22:24;100727.03;;;19.27;92.07
77311;BME280;66371;52.714;5.074;2023-07-29T09:24:51;100726.31;;;19.13;94.75
77311;BME280;66371;52.714;5.074;2023-07-29T09:27:26;100731.19;;;18.98;95.84
77311;BME280;66371;52.714;5.074;2023-07-29T09:29:53;100731.66;;;18.88;94.54
77311;BME280;66371;52.714;5.074;2023-07-29T09:32:22;100727.66;;;18.91;95.24
77311;BME280;66371;52.714;5.074;2023-07-29T09:34:48;100727.25;;;18.94;94.05
77311;BME280;66371;52.714;5.074;2023-07-29T09:37:21;100719.66;;;19.09;94.23
77311;BME280;66371;52.714;5.074;2023-07-29T09:39:48;100722.09;;;19.17;94.54
77311;BME280;66371;52.714;5.074;2023-07-29T09:42:21;100723.72;;;19.24;95.28
77311;BME280;66371;52.714;5.074;2023-07-29T09:44:50;100718.50;;;19.23;95.34
77311;BME280;66371;52.714;5.074;2023-07-29T09:47:23;100722.88;;;19.31;95.43
77311;BME280;66371;52.714;5.074;2023-07-29T09:49:52;100719.47;;;19.42;95.61
77311;BME280;66371;52.714;5.074;2023-07-29T09:52:18;100725.91;;;19.47;94.30
77311;BME280;66371;52.714;5.074;2023-07-29T09:54:46;100720.25;;;19.49;93.54
77311;BME280;66371;52.714;5.074;2023-07-29T09:57:14;100717.31;;;19.50;93.73
77311;BME280;66371;52.714;5.074;2023-07-29T09:59:39;100717.09;;;19.76;93.33
77311;BME280;66371;52.714;5.074;2023-07-29T10:02:09;100723.22;;;19.90;91.89
77311;BME280;66371;52.714;5.074;2023-07-29T10:04:38;100721.31;;;19.90;91.36
77311;BME280;66371;52.714;5.074;2023-07-29T10:07:03;100718.41;;;20.10;91.56
77311;BME280;66371;52.714;5.074;2023-07-29T10:09:30;100726.31;;;20.11;92.60
77311;BME280;66371;52.714;5.074;2023-07-29T10:11:57;100733.00;;;20.15;92.20
77311;BME280;66371;52.714;5.074;2023-07-29T10:14:22;100730.69;;;20.37;92.05
77311;BME280;66371;52.714;5.074;2023-07-29T10:16:49;100725.16;;;20.25;89.54
77311;BME280;66371;52.714;5.074;2023-07-29T10:19:15;100738.44;;;20.15;89.88
77311;BME280;66371;52.714;5.074;2023-07-29T10:21:44;100733.09;;;20.02;90.38
77311;BME280;66371;52.714;5.074;2023-07-29T10:24:15;100728.03;;;20.48;91.40
77311;BME280;66371;52.714;5.074;2023-07-29T10:26:46;100724.72;;;20.64;88.93
77311;BME280;66371;52.714;5.074;2023-07-29T10:29:12;100725.41;;;20.89;90.14
77311;BME280;66371;52.714;5.074;2023-07-29T10:31:40;100722.31;;;20.56;89.68
77311;BME280;66371;52.714;5.074;2023-07-29T10:34:08;100725.53;;;20.65;89.15
77311;BME280;66371;52.714;5.074;2023-07-29T10:36:35;100730.59;;;20.43;85.93
77311;BME280;66371;52.714;5.074;2023-07-29T10:39:01;100731.13;;;20.70;86.07
77311;BME280;66371;52.714;5.074;2023-07-29T10:41:56;100725.66;;;20.88;86.51
77311;BME280;66371;52.714;5.074;2023-07-29T10:49:58;100736.13;;;20.19;86.43
77311;BME280;66371;52.714;5.074;2023-07-29T10:52:39;100743.19;;;19.95;87.01
77311;BME280;66371;52.714;5.074;2023-07-29T10:55:23;100735.19;;;19.82;88.45
77311;BME280;66371;52.714;5.074;2023-07-29T10:57:50;100741.16;;;19.91;90.85
77311;BME280;66371;52.714;5.074;2023-07-29T11:00:16;100740.22;;;19.79;89.29
77311;BME280;66371;52.714;5.074;2023-07-29T11:02:56;100746.97;;;19.70;89.57
77311;BME280;66371;52.714;5.074;2023-07-29T11:05:24;100750.22;;;19.54;90.45
77311;BME280;66371;52.714;5.074;2023-07-29T11:07:49;100750.84;;;19.56;91.07
77311;BME280;66371;52.714;5.074;2023-07-29T11:10:15;100748.00;;;19.69;91.34
77311;BME280;66371;52.714;5.074;2023-07-29T11:12:46;100747.88;;;19.88;92.00
77311;BME280;66371;52.714;5.074;2023-07-29T11:15:15;100744.09;;;19.89;89.96
77311;BME280;66371;52.714;5.074;2023-07-29T11:20:08;100754.59;;;20.04;89.76
77311;BME280;66371;52.714;5.074;2023-07-29T11:22:34;100754.72;;;20.15;89.65
77311;BME280;66371;52.714;5.074;2023-07-29T11:25:00;100750.00;;;20.47;88.83
77311;BME280;66371;52.714;5.074;2023-07-29T11:27:26;100753.44;;;20.90;88.01
77311;BME280;66371;52.714;5.074;2023-07-29T11:29:57;100753.34;;;21.15;83.67
77311;BME280;66371;52.714;5.074;2023-07-29T11:32:23;100750.03;;;20.95;82.27
77311;BME280;66371;52.714;5.074;2023-07-29T11:34:49;100743.75;;;20.64;81.88
77311;BME280;66371;52.714;5.074;2023-07-29T11:37:14;100747.13;;;20.60;83.62
77311;BME280;66371;52.714;5.074;2023-07-29T11:39:40;100756.25;;;20.29;81.16
77311;BME280;66371;52.714;5.074;2023-07-29T11:42:06;100750.94;;;20.16;82.62
77311;BME280;66371;52.714;5.074;2023-07-29T11:44:32;100756.78;;;20.20;82.60
77311;BME280;66371;52.714;5.074;2023-07-29T11:46:57;100750.34;;;20.14;83.74
77311;BME280;66371;52.714;5.074;2023-07-29T11:49:23;100754.66;;;20.22;84.17
77311;BME280;66371;52.714;5.074;2023-07-29T11:51:48;100756.16;;;20.18;79.25
77311;BME280;66371;52.714;5.074;2023-07-29T11:54:15;100765.59;;;20.33;77.32
77311;BME280;66371;52.714;5.074;2023-07-29T11:56:40;100759.19;;;20.82;80.76
77311;BME280;66371;52.714;5.074;2023-07-29T11:59:06;100770.66;;;20.84;76.58
77311;BME280;66371;52.714;5.074;2023-07-29T12:01:32;100768.06;;;20.89;76.07
77311;BME280;66371;52.714;5.074;2023-07-29T12:03:58;100763.22;;;20.91;74.16
77311;BME280;66371;52.714;5.074;2023-07-29T12:06:24;100769.34;;;20.86;74.69
77311;BME280;66371;52.714;5.074;2023-07-29T12:08:51;100765.69;;;20.99;77.34
77311;BME280;66371;52.714;5.074;2023-07-29T12:11:16;100767.34;;;21.41;78.07
77311;BME280;66371;52.714;5.074;2023-07-29T12:13:42;100753.53;;;21.43;75.24
77311;BME280;66371;52.714;5.074;2023-07-29T12:16:08;100754.41;;;21.66;74.53
77311;BME280;66371;52.714;5.074;2023-07-29T12:18:34;100761.34;;;21.51;74.49
77311;BME280;66371;52.714;5.074;2023-07-29T12:21:00;100745.97;;;21.45;75.41
77311;BME280;66371;52.714;5.074;2023-07-29T12:23:26;100752.25;;;21.45;76.30
77311;BME280;66371;52.714;5.074;2023-07-29T12:25:58;100741.09;;;21.76;76.72
77311;BME280;66371;52.714;5.074;2023-07-29T12:28:25;100741.09;;;21.88;72.18
77311;BME280;66371;52.714;5.074;2023-07-29T12:30:56;100748.00;;;21.49;70.57
77311;BME280;66371;52.714;5.074;2023-07-29T12:33:33;100738.97;;;21.90;72.45
77311;BME280;66371;52.714;5.074;2023-07-29T12:35:59;100740.09;;;21.71;69.67
77311;BME280;66371;52.714;5.074;2023-07-29T12:38:28;100736.75;;;21.46;70.32
77311;BME280;66371;52.714;5.074;2023-07-29T12:40:53;100727.53;;;21.58;71.76
77311;BME280;66371;52.714;5.074;2023-07-29T12:43:19;100727.53;;;21.58;71.20
77311;BME280;66371;52.714;5.074;2023-07-29T12:45:44;100734.28;;;21.67;69.28
77311;BME280;66371;52.714;5.074;2023-07-29T12:48:10;100729.69;;;21.68;70.65
77311;BME280;66371;52.714;5.074;2023-07-29T12:50:37;100737.00;;;21.56;68.67
77311;BME280;66371;52.714;5.074;2023-07-29T12:53:04;100719.75;;;21.62;69.42